createdAt,value
2022-08-16T04:00:07.906Z,15.00
2022-08-16T04:02:44.240Z,13.70
2022-08-16T04:05:18.520Z,15.80
2022-08-16T04:07:52.266Z,14.70
2022-08-16T04:10:37.353Z,14.60
2022-08-16T04:13:20.047Z,18.50
2022-08-16T04:15:53.264Z,14.10
2022-08-16T04:18:27.052Z,14.90
2022-08-16T04:20:59.742Z,13.90
2022-08-16T04:23:29.943Z,20.00
2022-08-16T04:26:02.128Z,19.30
2022-08-16T04:28:53.437Z,15.50
2022-08-16T04:31:25.279Z,14.80
2022-08-16T04:34:01.353Z,14.70
2022-08-16T04:36:30.491Z,13.30
2022-08-16T04:39:02.105Z,14.20
2022-08-16T04:41:37.403Z,13.40
2022-08-16T04:44:30.977Z,14.00
2022-08-16T04:47:03.177Z,13.40
2022-08-16T04:49:50.014Z,14.60
2022-08-16T04:52:32.735Z,15.20
2022-08-16T04:55:15.943Z,15.00
2022-08-16T04:57:52.589Z,14.70
2022-08-16T05:00:34.375Z,13.40
2022-08-16T05:03:22.590Z,14.40
2022-08-16T05:05:59.429Z,14.40
2022-08-16T05:08:34.467Z,14.70
2022-08-16T05:11:31.873Z,14.80
2022-08-16T05:14:07.211Z,14.50
2022-08-16T05:16:39.179Z,14.10
2022-08-16T05:19:13.386Z,14.10
2022-08-16T05:22:04.071Z,15.20
2022-08-16T05:24:36.873Z,12.80
2022-08-16T05:27:11.426Z,13.90
2022-08-16T05:29:57.458Z,14.10
2022-08-16T05:32:32.850Z,14.20
2022-08-16T05:35:10.809Z,14.70
2022-08-16T05:37:46.150Z,13.80
2022-08-16T05:40:16.544Z,14.10
2022-08-16T05:42:49.358Z,13.80
2022-08-16T05:45:21.452Z,14.90
2022-08-16T05:47:59.947Z,14.80
2022-08-16T05:50:52.938Z,14.30
2022-08-16T05:53:24.762Z,14.50
2022-08-16T05:56:19.509Z,14.90
2022-08-16T05:58:50.300Z,14.60
2022-08-16T06:01:19.961Z,14.70
2022-08-16T06:03:55.875Z,13.00
2022-08-16T06:06:36.313Z,15.90
2022-08-16T06:09:12.586Z,15.50
2022-08-16T06:11:44.603Z,14.10
2022-08-16T06:14:14.820Z,13.40
2022-08-16T06:16:50.798Z,14.50
2022-08-16T06:19:22.348Z,13.80
2022-08-16T06:22:03.206Z,12.80
2022-08-16T06:24:53.704Z,12.90
2022-08-16T06:27:26.135Z,17.30
2022-08-16T06:30:13.969Z,15.70
2022-08-16T06:32:51.283Z,21.30
2022-08-16T06:35:21.058Z,22.60
2022-08-16T06:37:53.526Z,14.00
2022-08-16T06:40:33.698Z,12.40
2022-08-16T06:43:03.990Z,13.60
2022-08-16T06:45:49.470Z,12.80
2022-08-16T06:48:32.210Z,12.50
2022-08-16T06:51:05.595Z,13.30
2022-08-16T06:53:36.932Z,17.80
2022-08-16T06:56:14.632Z,14.90
2022-08-16T06:59:09.090Z,14.30
2022-08-16T07:01:54.151Z,13.40
2022-08-16T07:04:32.427Z,15.00
2022-08-16T07:07:09.694Z,14.50
2022-08-16T07:09:40.535Z,14.00
2022-08-16T07:12:11.396Z,13.80
2022-08-16T07:14:48.530Z,13.90
2022-08-16T07:17:22.022Z,14.10
2022-08-16T07:20:03.907Z,13.10
2022-08-16T07:22:58.954Z,13.90
2022-08-16T07:25:44.881Z,14.10
2022-08-16T07:28:20.940Z,13.80
2022-08-16T07:30:54.785Z,15.70
2022-08-16T07:33:53.501Z,13.80
2022-08-16T07:36:31.889Z,14.00
2022-08-16T07:39:01.511Z,16.20
2022-08-16T07:41:36.867Z,14.20
2022-08-16T07:44:16.466Z,13.60
2022-08-16T07:46:55.433Z,13.50
2022-08-16T07:49:26.644Z,12.30
2022-08-16T07:52:20.147Z,13.80
2022-08-16T07:54:53.471Z,13.40
2022-08-16T07:57:23.984Z,12.80
2022-08-16T07:59:57.012Z,14.00
2022-08-16T08:02:29.006Z,14.80
2022-08-16T08:05:03.407Z,16.40
2022-08-16T08:07:33.182Z,14.30
2022-08-16T08:10:11.147Z,14.60
2022-08-16T08:12:43.870Z,13.10
2022-08-16T08:17:58.734Z,13.00
2022-08-16T08:20:59.388Z,14.00
2022-08-16T08:26:01.427Z,13.60
2022-08-16T08:28:32.179Z,13.60
2022-08-16T08:33:43.834Z,12.80
2022-08-16T08:36:24.743Z,14.20
2022-08-16T08:39:12.753Z,12.50
2022-08-16T08:41:46.459Z,13.00
2022-08-16T08:44:28.969Z,12.50
2022-08-16T08:47:11.945Z,12.80
2022-08-16T08:49:50.631Z,13.70
2022-08-16T08:52:34.655Z,13.20
2022-08-16T08:55:23.576Z,13.00
2022-08-16T08:57:52.904Z,12.90
2022-08-16T09:00:51.338Z,12.90
2022-08-16T09:03:23.558Z,13.90
2022-08-16T09:05:58.069Z,12.40
2022-08-16T09:08:28.968Z,13.20
2022-08-16T09:11:03.661Z,13.10
2022-08-16T09:13:38.174Z,12.10
2022-08-16T09:17:01.680Z,12.30
2022-08-16T09:21:42.054Z,13.60
2022-08-16T09:24:12.394Z,12.40
2022-08-16T09:27:03.516Z,12.20
2022-08-16T09:29:45.034Z,12.40
2022-08-16T09:32:28.465Z,13.20
2022-08-16T09:35:00.016Z,12.20
2022-08-16T09:37:36.558Z,11.00
2022-08-16T09:40:33.197Z,11.20
2022-08-16T09:42:59.737Z,10.50
2022-08-16T09:45:29.325Z,12.50
2022-08-16T09:47:59.687Z,13.60
2022-08-16T09:50:38.218Z,11.10
2022-08-16T09:53:15.127Z,9.80
2022-08-16T09:55:50.149Z,10.80
2022-08-16T09:58:37.806Z,10.90
2022-08-16T10:01:11.172Z,10.00
2022-08-16T10:04:01.765Z,12.10
2022-08-16T10:06:33.273Z,11.30
2022-08-16T10:12:11.052Z,10.40
2022-08-16T10:14:46.796Z,10.80
2022-08-16T10:17:15.919Z,10.70
2022-08-16T10:19:47.533Z,10.20
2022-08-16T10:22:22.969Z,12.50
2022-08-16T10:24:55.661Z,12.30
2022-08-16T10:27:47.111Z,12.40
2022-08-16T10:30:25.782Z,9.60
2022-08-16T10:32:58.482Z,11.30
2022-08-16T10:35:32.536Z,9.90
2022-08-16T10:38:03.021Z,8.90
2022-08-16T10:40:36.752Z,7.60
2022-08-16T10:43:08.232Z,11.40
2022-08-16T10:45:59.926Z,10.10
2022-08-16T10:48:31.326Z,9.70
2022-08-16T10:51:00.209Z,10.10
2022-08-16T10:53:33.974Z,9.80
2022-08-16T10:56:44.279Z,8.60
2022-08-16T10:59:32.793Z,8.50
2022-08-16T11:05:09.675Z,7.20
2022-08-16T11:07:51.702Z,8.50
2022-08-16T11:16:25.402Z,11.00
2022-08-16T11:19:04.531Z,9.10
2022-08-16T11:22:22.472Z,7.50
2022-08-16T11:24:41.654Z,8.20
2022-08-16T11:27:19.860Z,9.10
2022-08-16T11:29:52.897Z,12.00
2022-08-16T11:32:31.833Z,10.10
2022-08-16T11:35:13.593Z,10.70
2022-08-16T11:38:06.013Z,10.10
2022-08-16T11:40:52.155Z,8.50
2022-08-16T11:43:26.759Z,8.80
2022-08-16T11:46:07.781Z,7.80
2022-08-16T11:48:52.186Z,8.00
2022-08-16T11:51:22.139Z,8.70
2022-08-16T11:53:51.799Z,7.40
2022-08-16T11:56:37.653Z,7.30
2022-08-16T11:59:12.854Z,6.50
2022-08-16T12:01:55.031Z,7.60
2022-08-16T12:04:26.401Z,7.00
2022-08-16T12:06:55.990Z,7.40
2022-08-16T12:09:29.398Z,11.00
2022-08-16T12:12:03.071Z,6.40
2022-08-16T12:14:35.413Z,7.60
2022-08-16T12:17:08.319Z,9.50
2022-08-16T12:19:38.531Z,6.90
2022-08-16T12:22:19.471Z,6.90
2022-08-16T12:24:51.984Z,9.60
2022-08-16T12:27:24.427Z,11.20
2022-08-16T12:29:54.386Z,11.70
2022-08-16T12:32:38.117Z,7.80
2022-08-16T12:35:15.964Z,8.20
2022-08-16T12:37:47.300Z,9.00
2022-08-16T12:40:25.194Z,8.40
2022-08-16T12:43:00.712Z,9.80
2022-08-16T12:45:32.420Z,9.00
2022-08-16T12:48:34.534Z,10.60
2022-08-16T12:51:13.685Z,9.10
2022-08-16T12:53:51.884Z,9.20
2022-08-16T12:56:25.421Z,11.70
2022-08-16T12:58:57.568Z,12.90
2022-08-16T13:01:32.272Z,10.10
2022-08-16T13:04:11.928Z,9.90
2022-08-16T13:06:52.098Z,10.80
2022-08-16T13:09:26.647Z,10.70
2022-08-16T13:12:16.827Z,12.10
2022-08-16T13:14:47.946Z,11.30
2022-08-16T13:17:26.489Z,12.10
2022-08-16T13:20:11.015Z,11.20
2022-08-16T13:22:52.673Z,12.70
2022-08-16T13:25:25.627Z,7.70
2022-08-16T13:28:16.926Z,11.90
2022-08-16T13:30:52.973Z,12.50
2022-08-16T13:33:37.840Z,8.40
2022-08-16T13:36:17.097Z,8.40
2022-08-16T13:39:00.489Z,9.10
2022-08-16T13:41:30.146Z,7.20
2022-08-16T13:44:01.036Z,12.20
2022-08-16T13:46:34.240Z,13.70
2022-08-16T13:49:05.693Z,9.70
2022-08-16T13:51:35.015Z,9.50
2022-08-16T13:54:09.180Z,7.50
2022-08-16T13:56:41.615Z,10.70
2022-08-16T13:59:20.271Z,12.30
2022-08-16T14:01:59.812Z,10.50
2022-08-16T14:04:40.998Z,9.60
2022-08-16T14:07:19.922Z,11.60
2022-08-16T14:09:55.308Z,7.40
2022-08-16T14:12:31.195Z,9.90
2022-08-16T14:15:03.111Z,9.00
2022-08-16T14:18:17.059Z,6.70
2022-08-16T14:20:21.300Z,8.00
2022-08-16T14:22:52.555Z,6.90
2022-08-16T14:25:27.030Z,11.00
2022-08-16T14:27:56.436Z,6.70
2022-08-16T14:30:26.820Z,6.80
2022-08-16T14:32:57.129Z,7.90
2022-08-16T14:35:48.355Z,10.20
2022-08-16T14:38:23.655Z,7.40
2022-08-16T14:40:55.571Z,8.20
2022-08-16T14:43:29.781Z,6.70
2022-08-16T14:46:00.786Z,6.70
2022-08-16T14:48:31.756Z,11.50
2022-08-16T14:51:02.908Z,7.40
2022-08-16T14:53:32.851Z,7.50
2022-08-16T14:56:02.342Z,7.40
2022-08-16T14:58:36.757Z,6.90
2022-08-16T15:01:09.917Z,7.00
2022-08-16T15:03:42.326Z,7.30
2022-08-16T15:06:16.286Z,7.30
2022-08-16T15:08:46.035Z,11.30
2022-08-16T15:11:15.514Z,10.50
2022-08-16T15:13:47.425Z,7.80
2022-08-16T15:16:17.166Z,9.40
2022-08-16T15:18:47.328Z,8.50
2022-08-16T15:21:16.891Z,8.80
2022-08-16T15:23:45.761Z,6.80
2022-08-16T15:26:29.681Z,11.70
2022-08-16T15:29:05.939Z,7.50
2022-08-16T15:31:38.324Z,8.70
2022-08-16T15:36:50.768Z,10.20
2022-08-16T15:39:29.797Z,10.00
2022-08-16T15:42:15.719Z,11.50
2022-08-16T15:44:58.612Z,7.70
2022-08-16T15:47:34.247Z,10.50
2022-08-16T15:50:06.610Z,8.50
2022-08-16T15:52:38.896Z,8.50
2022-08-16T15:55:23.772Z,10.00
2022-08-16T15:57:59.881Z,13.80
2022-08-16T16:00:29.459Z,12.90
2022-08-16T16:03:15.613Z,8.40
2022-08-16T16:05:48.355Z,9.00
2022-08-16T16:08:23.986Z,9.30
2022-08-16T16:11:04.556Z,10.60
2022-08-16T16:13:35.621Z,9.40
2022-08-16T16:16:16.571Z,10.00
2022-08-16T16:18:48.748Z,12.60
2022-08-16T16:21:20.321Z,19.30
2022-08-16T16:23:54.005Z,16.10
2022-08-16T16:26:24.820Z,13.60
2022-08-16T16:29:07.587Z,9.30
2022-08-16T16:31:44.259Z,9.00
2022-08-16T16:34:33.491Z,10.50
2022-08-16T16:37:05.055Z,8.40
2022-08-16T16:39:38.728Z,8.60
2022-08-16T16:42:10.994Z,11.30
2022-08-16T16:45:02.161Z,11.60
2022-08-16T16:47:48.334Z,10.00
2022-08-16T16:50:18.425Z,11.00
2022-08-16T16:52:48.338Z,25.10
2022-08-16T16:55:17.161Z,11.00
2022-08-16T16:58:04.582Z,10.20
2022-08-16T17:00:42.816Z,9.50
2022-08-16T17:03:22.218Z,8.20
2022-08-16T17:05:57.359Z,11.10
2022-08-16T17:08:32.729Z,9.10
2022-08-16T17:11:03.006Z,8.80
2022-08-16T17:13:33.371Z,8.30
2022-08-16T17:16:03.289Z,8.70
2022-08-16T17:19:14.457Z,10.80
2022-08-16T17:21:25.100Z,8.90
2022-08-16T17:23:58.808Z,10.50
2022-08-16T17:26:31.013Z,13.30
2022-08-16T17:29:02.321Z,11.40
2022-08-16T17:31:41.110Z,8.50
2022-08-16T17:34:28.737Z,9.20
2022-08-16T17:37:08.140Z,8.50
2022-08-16T17:40:00.130Z,8.70
2022-08-16T17:42:26.514Z,8.30
2022-08-16T17:44:55.183Z,8.40
2022-08-16T17:47:24.355Z,8.50
2022-08-16T17:50:13.506Z,8.20
2022-08-16T17:52:55.462Z,18.60
2022-08-16T17:55:31.308Z,17.40
2022-08-16T17:58:01.079Z,19.20
2022-08-16T18:00:42.031Z,27.10
2022-08-16T18:04:08.202Z,51.60
2022-08-16T18:06:32.609Z,30.40
2022-08-16T18:09:03.475Z,27.60
2022-08-16T18:11:41.345Z,33.90
2022-08-16T18:14:13.673Z,25.90
2022-08-16T18:16:48.621Z,23.70
2022-08-16T18:19:17.908Z,51.60
2022-08-16T18:22:05.974Z,69.00
2022-08-16T18:24:35.444Z,20.50
2022-08-16T18:27:26.887Z,14.20
2022-08-16T18:29:54.914Z,13.10
2022-08-16T18:32:24.796Z,19.00
2022-08-16T18:34:55.058Z,24.60
2022-08-16T18:37:24.953Z,23.50
2022-08-16T18:39:53.741Z,20.40
2022-08-16T18:42:26.531Z,14.10
2022-08-16T18:44:55.522Z,15.10
2022-08-16T18:47:24.941Z,18.70
2022-08-16T18:49:53.371Z,15.80
2022-08-16T18:52:25.772Z,15.40
2022-08-16T18:55:01.586Z,14.90
2022-08-16T18:57:35.523Z,13.50
2022-08-16T19:00:11.653Z,15.60
2022-08-16T19:02:58.072Z,11.80
2022-08-16T19:05:30.132Z,15.50
2022-08-16T19:07:59.281Z,13.70
2022-08-16T19:10:30.173Z,14.60
2022-08-16T19:13:00.077Z,18.50
2022-08-16T19:15:29.884Z,19.20
2022-08-16T19:17:58.784Z,22.50
2022-08-16T19:20:29.289Z,16.80
2022-08-16T19:23:05.601Z,17.00
2022-08-16T19:25:47.566Z,13.40
2022-08-16T19:28:51.520Z,14.30
2022-08-16T19:31:27.577Z,12.90
2022-08-16T19:33:57.960Z,15.10
2022-08-16T19:36:35.219Z,12.10
2022-08-16T19:39:09.512Z,20.80
2022-08-16T19:41:44.718Z,29.30
2022-08-16T19:44:13.815Z,14.10
2022-08-16T19:46:45.567Z,15.30
2022-08-16T19:49:16.110Z,13.80
2022-08-16T19:51:48.167Z,14.40
2022-08-16T19:54:18.297Z,16.20
2022-08-16T19:56:47.741Z,13.90
2022-08-16T19:59:20.448Z,11.60
2022-08-16T20:01:53.007Z,12.70
2022-08-16T20:04:22.929Z,20.80
2022-08-16T20:06:53.582Z,13.70
2022-08-16T20:09:23.702Z,14.10
2022-08-16T20:11:54.665Z,16.00
2022-08-16T20:14:26.517Z,22.40
2022-08-16T20:16:58.518Z,17.40
2022-08-16T20:19:29.664Z,49.60
2022-08-16T20:22:51.733Z,26.40
2022-08-16T20:25:27.985Z,28.90
2022-08-16T20:27:59.301Z,38.90
2022-08-16T20:30:28.407Z,34.20
2022-08-16T20:32:57.929Z,31.70
2022-08-16T20:35:29.017Z,27.20
2022-08-16T20:37:57.978Z,22.10
2022-08-16T20:40:35.241Z,21.20
2022-08-16T20:43:12.678Z,18.70
2022-08-16T20:45:46.076Z,18.80
2022-08-16T20:48:15.880Z,36.80
2022-08-16T20:50:45.632Z,40.90
2022-08-16T20:53:15.046Z,47.30
2022-08-16T20:55:45.356Z,47.10
2022-08-16T20:58:16.635Z,47.60
2022-08-16T21:00:48.209Z,49.30
2022-08-16T21:03:17.590Z,45.00
2022-08-16T21:05:47.357Z,39.80
2022-08-16T21:08:50.756Z,38.00
2022-08-16T21:11:10.729Z,31.10
2022-08-16T21:13:42.914Z,27.20
2022-08-16T21:16:12.566Z,23.00
2022-08-16T21:18:41.678Z,23.60
2022-08-16T21:21:12.801Z,18.50
2022-08-16T21:23:42.107Z,23.90
2022-08-16T21:26:11.772Z,29.90
2022-08-16T21:28:47.760Z,27.00
2022-08-16T21:31:18.034Z,26.00
2022-08-16T21:33:55.151Z,19.70
2022-08-16T21:36:34.841Z,18.30
2022-08-16T21:39:08.641Z,17.90
2022-08-16T21:41:42.213Z,14.80
2022-08-16T21:46:40.645Z,16.30
2022-08-16T21:49:09.259Z,15.90
2022-08-16T21:51:38.341Z,16.10
2022-08-16T21:54:07.738Z,13.30
2022-08-16T21:56:37.114Z,46.30
2022-08-16T21:59:11.494Z,21.10
2022-08-16T22:01:42.848Z,20.10
2022-08-16T22:04:37.785Z,14.20
2022-08-16T22:07:04.451Z,15.40
2022-08-16T22:09:33.844Z,14.50
2022-08-16T22:12:03.582Z,12.40
2022-08-16T22:14:33.058Z,15.00
2022-08-16T22:17:02.946Z,13.50
2022-08-16T22:19:32.379Z,13.20
2022-08-16T22:22:02.171Z,13.60
2022-08-16T22:24:31.382Z,15.10
2022-08-16T22:27:01.209Z,16.20
2022-08-16T22:29:30.461Z,13.50
2022-08-16T22:31:59.691Z,14.40
2022-08-16T22:34:28.025Z,17.20
2022-08-16T22:36:58.242Z,13.70
2022-08-16T22:39:27.958Z,13.70
2022-08-16T22:41:59.515Z,13.20
2022-08-16T22:44:29.372Z,14.30
2022-08-16T22:46:58.924Z,14.40
2022-08-16T22:49:29.765Z,14.80
2022-08-16T22:52:10.001Z,13.10
2022-08-16T22:54:48.585Z,14.40
2022-08-16T22:57:18.987Z,19.30
2022-08-16T22:59:48.227Z,28.70
